Terminal Aerodrome Forecast
Issued by NWS Pittsburgh, PA

Current Version | Previous Version | Graphics & Text | Print | Product List | Glossary On
Versions: 1 2 3 4 5 6 7 8 9 10 11 12 13 14 15 16 17 18 19 20 21 22 23 24 25 26 27
000
FTUS41 KPBZ 302339
TAFPIT
TAF
KPIT 302339Z 0100/0206 33009KT P6SM -SHRA SCT015 BKN050
     FM010130 35010KT 4SM -SHRA BKN025
     FM010300 36006KT P6SM VCSH OVC015
     FM011300 01006KT P6SM BKN035
     FM011700 01006KT P6SM SCT050=

USA.gov is the U.S. government's official web portal to all federal, state and local government web resources and services.